KCIC

Chico Municipal Airport

Chico, California, USA
METAR KCIC 162355Z AUTO 32018G24KT 10SM CLR 14/M05 A3000 RMK AO1
Observed Flight Rules
Dec-16 @ 23:55 UTC (16 minutes ago) Visual Flight Rules
Wind Visibility Clouds
320° at 18 knots
 Gusting to 24 knots
10 miles
  • Clear skies
Temperatures Readings
Current 14°C / 57°F
Dewpoint -5°C / 23°F
Humidity 27%
Altimeter 30" Hg
Pressure 1016 hPa
Elevation 73
METAR KCIC 162355Z AUTO 32018G24KT 10SM CLR 14/M05 A3000 RMK AO1
Observed Flight Rules
Dec-16 @ 23:55 UTC
(16 minutes ago)
VFR
Wind Visibility
320° at 18 knots
 Gusting to 24 knots
10 miles
Clouds
  • Clear skies
Temperature Dewpoint
14°C / 57°F -5°C / 23°F
Humidity Altimeter Pressure
27% 30" Hg 1016 hPa